Time;durP1;ratioP1;P1;durP2;ratioP2;P2;SDS_P1;SDS_P2;PMS_P1;PMS_P2;Temp;Humidity;BMP_temperature;BMP_pressure;BME280_temperature;BME280_humidity;BME280_pressure;Samples;Min_cycle;Max_cycle;Signal;HPM_P1;HPM_P2
2022/10/20 00:00:03;;;;;;;16.15;10.43;;;15.10;99.90;;;;;;5012580;28;20157;-65
2022/10/20 00:02:28;;;;;;;15.07;10.40;;;15.10;99.90;;;;;;5012342;28;20029;-64
2022/10/20 00:04:54;;;;;;;12.88;9.93;;;15.10;99.90;;;;;;5012417;28;20022;-65
2022/10/20 00:07:19;;;;;;;13.50;9.80;;;15.10;99.90;;;;;;5012536;28;20105;-65
2022/10/20 00:09:45;;;;;;;14.68;11.35;;;15.10;99.90;;;;;;5012069;28;20057;-65
2022/10/20 00:12:10;;;;;;;13.90;10.43;;;15.00;99.90;;;;;;5011353;28;20060;-64
2022/10/20 00:14:37;;;;;;;15.55;11.68;;;15.10;99.90;;;;;;5012090;28;20057;-64
2022/10/20 00:17:04;;;;;;;13.90;10.07;;;15.10;99.90;;;;;;5012419;28;20561;-63
2022/10/20 00:19:29;;;;;;;14.52;11.02;;;15.00;99.90;;;;;;5012371;28;20018;-64
2022/10/20 00:21:55;;;;;;;14.27;10.85;;;15.00;99.90;;;;;;5012471;28;20076;-65
2022/10/20 00:24:21;;;;;;;15.85;11.27;;;15.00;99.90;;;;;;5024359;28;97089;-65
2022/10/20 00:26:46;;;;;;;14.80;11.15;;;15.00;99.90;;;;;;5013133;28;20076;-65
2022/10/20 00:29:12;;;;;;;15.60;10.98;;;15.00;99.90;;;;;;5013087;28;20487;-63
2022/10/20 00:31:38;;;;;;;15.23;11.32;;;15.00;99.90;;;;;;5013018;28;20038;-65
2022/10/20 00:34:03;;;;;;;18.27;12.02;;;15.00;99.90;;;;;;5012943;28;20395;-64
2022/10/20 00:36:29;;;;;;;17.63;11.23;;;15.00;99.90;;;;;;5027942;28;20112;-63
2022/10/20 00:39:03;;;;;;;12.63;11.07;;;15.00;99.90;;;;;;5012962;28;20476;-63
2022/10/20 00:41:29;;;;;;;13.85;11.70;;;15.00;99.90;;;;;;5012844;28;20061;-64
2022/10/20 00:44:01;;;;;;;17.00;11.05;;;15.00;99.90;;;;;;5013052;28;20026;-64
2022/10/20 00:46:45;;;;;;;16.90;11.57;;;15.00;99.90;;;;;;5012872;28;20105;-65
2022/10/20 00:49:16;;;;;;;16.92;11.65;;;15.00;99.90;;;;;;5012876;28;20026;-65
2022/10/20 00:51:42;;;;;;;18.33;11.48;;;14.90;99.90;;;;;;5012770;28;20519;-65
2022/10/20 00:54:12;;;;;;;16.45;11.45;;;14.90;99.90;;;;;;5012553;28;20030;-64
2022/10/20 00:56:41;;;;;;;15.18;11.57;;;15.00;99.90;;;;;;5012973;28;20483;-64
2022/10/20 00:59:08;;;;;;;14.43;11.93;;;14.90;99.90;;;;;;5013094;28;20101;-65
2022/10/20 01:01:34;;;;;;;16.98;12.02;;;15.00;99.90;;;;;;5012822;28;20026;-61
2022/10/20 01:04:00;;;;;;;16.08;12.05;;;14.90;99.90;;;;;;5012579;28;20034;-64
2022/10/20 01:06:26;;;;;;;15.85;11.57;;;14.90;99.90;;;;;;5012673;28;20026;-63
2022/10/20 01:08:53;;;;;;;16.85;11.25;;;14.90;99.90;;;;;;5012501;28;20582;-65
2022/10/20 01:11:40;;;;;;;15.98;12.15;;;14.90;99.90;;;;;;5012685;28;20033;-62
2022/10/20 01:14:17;;;;;;;14.98;11.23;;;14.90;99.90;;;;;;5012582;28;20473;-61
2022/10/20 01:16:50;;;;;;;17.15;12.13;;;14.80;99.90;;;;;;5012508;28;20105;-62
2022/10/20 01:19:32;;;;;;;13.07;11.57;;;14.80;99.90;;;;;;5012549;28;20578;-63
2022/10/20 01:22:16;;;;;;;15.88;11.23;;;14.90;99.90;;;;;;5012467;28;20022;-62
2022/10/20 01:25:05;;;;;;;15.68;12.57;;;14.80;99.90;;;;;;5015227;28;20057;-63
2022/10/20 01:27:40;;;;;;;14.05;11.70;;;14.80;99.90;;;;;;5016009;28;20460;-60
2022/10/20 01:30:18;;;;;;;18.45;12.77;;;14.80;99.90;;;;;;5016143;28;20076;-61
2022/10/20 01:33:09;;;;;;;15.70;12.68;;;14.80;99.90;;;;;;5015866;28;20026;-60
2022/10/20 01:35:35;;;;;;;18.23;12.48;;;14.80;99.90;;;;;;5015467;28;20049;-64
2022/10/20 01:38:08;;;;;;;14.73;11.20;;;14.80;99.90;;;;;;5015847;28;20049;-62
2022/10/20 01:40:48;;;;;;;16.02;12.27;;;14.70;99.90;;;;;;5015857;28;20427;-60
2022/10/20 01:43:18;;;;;;;13.50;11.77;;;14.80;99.90;;;;;;5015719;28;20125;-61
2022/10/20 01:45:46;;;;;;;12.82;11.48;;;14.80;99.90;;;;;;5015584;28;20026;-64
2022/10/20 01:48:14;;;;;;;13.55;11.15;;;14.80;99.90;;;;;;5015628;28;20036;-61
2022/10/20 01:50:41;;;;;;;14.63;12.05;;;14.70;99.90;;;;;;5015280;28;20106;-61
2022/10/20 01:53:07;;;;;;;15.55;12.25;;;14.70;99.90;;;;;;5015507;28;20092;-61
2022/10/20 01:55:34;;;;;;;15.50;12.23;;;14.80;99.90;;;;;;5015645;28;20379;-65
2022/10/20 01:58:28;;;;;;;16.40;12.75;;;14.80;99.90;;;;;;5015468;28;20033;-64
2022/10/20 02:00:58;;;;;;;13.25;11.15;;;14.80;99.90;;;;;;5015490;28;20021;-61
2022/10/20 02:03:29;;;;;;;12.82;11.50;;;14.80;99.90;;;;;;5015277;28;20112;-61
2022/10/20 02:06:16;;;;;;;13.98;11.93;;;14.70;99.90;;;;;;5015191;28;20391;-62
2022/10/20 02:08:52;;;;;;;13.75;12.15;;;14.70;99.90;;;;;;5015232;28;20076;-65
2022/10/20 02:11:30;;;;;;;16.85;13.05;;;14.80;99.90;;;;;;5015295;28;20053;-64
2022/10/20 02:13:57;;;;;;;14.07;11.85;;;14.80;99.90;;;;;;5015116;28;20560;-65
2022/10/20 02:16:28;;;;;;;17.30;11.73;;;14.80;99.90;;;;;;5015316;28;20034;-65
2022/10/20 02:18:55;;;;;;;17.00;13.10;;;14.80;99.90;;;;;;5015018;28;20104;-65
2022/10/20 02:21:20;;;;;;;15.02;12.27;;;14.80;99.90;;;;;;5014749;28;20018;-64
2022/10/20 02:23:48;;;;;;;15.00;12.27;;;14.70;99.90;;;;;;5014606;28;20084;-65
2022/10/20 02:26:18;;;;;;;19.10;13.07;;;14.70;99.90;;;;;;5015262;28;20049;-65
2022/10/20 02:28:47;;;;;;;14.10;12.30;;;14.70;99.90;;;;;;5014902;28;20021;-62
2022/10/20 02:31:13;;;;;;;17.45;11.55;;;14.70;99.90;;;;;;5014947;28;20052;-65
2022/10/20 02:33:41;;;;;;;14.43;12.02;;;14.70;99.90;;;;;;5014447;28;20077;-65
2022/10/20 02:36:14;;;;;;;16.45;13.02;;;14.70;99.90;;;;;;5013750;28;20376;-65
2022/10/20 02:38:39;;;;;;;16.40;12.23;;;14.70;99.90;;;;;;5014576;28;20029;-61
2022/10/20 02:41:05;;;;;;;18.58;11.88;;;14.70;99.90;;;;;;5014785;28;20030;-64
2022/10/20 02:43:31;;;;;;;14.73;12.52;;;14.70;99.90;;;;;;5014499;28;20045;-65
2022/10/20 02:45:56;;;;;;;13.32;11.93;;;14.70;99.90;;;;;;5014464;28;20034;-64
2022/10/20 02:48:22;;;;;;;17.73;13.27;;;14.70;99.90;;;;;;5029428;28;20065;-65
2022/10/20 02:50:47;;;;;;;13.95;12.10;;;14.70;99.90;;;;;;5014410;28;20125;-65
2022/10/20 02:53:13;;;;;;;13.75;12.05;;;14.70;99.90;;;;;;5014457;28;20478;-65
2022/10/20 02:55:38;;;;;;;16.83;11.85;;;14.70;99.90;;;;;;5014581;28;20030;-63
2022/10/20 02:58:04;;;;;;;16.60;12.75;;;14.70;99.90;;;;;;5014374;28;20033;-63
2022/10/20 03:00:30;;;;;;;13.13;11.82;;;14.80;99.90;;;;;;5014404;28;20030;-65
2022/10/20 03:02:56;;;;;;;15.52;13.65;;;14.70;99.90;;;;;;5029092;28;20084;-61
2022/10/20 03:05:22;;;;;;;14.45;13.00;;;14.70;99.90;;;;;;5014167;28;20438;-59
2022/10/20 03:07:47;;;;;;;18.52;13.10;;;14.70;99.90;;;;;;5014074;28;20587;-61
2022/10/20 03:10:13;;;;;;;14.57;12.82;;;14.70;99.90;;;;;;5014252;28;20084;-65
2022/10/20 03:12:38;;;;;;;15.95;13.27;;;14.70;99.90;;;;;;5014042;28;20026;-65
2022/10/20 03:15:05;;;;;;;17.65;12.65;;;14.70;99.90;;;;;;5014016;28;20085;-61
2022/10/20 03:17:30;;;;;;;16.48;13.07;;;14.70;99.90;;;;;;5013888;28;20014;-65
2022/10/20 03:19:56;;;;;;;16.63;13.60;;;14.60;99.90;;;;;;5013734;28;20071;-60
2022/10/20 03:22:21;;;;;;;18.00;12.82;;;14.60;99.90;;;;;;5013837;28;20437;-65
2022/10/20 03:24:47;;;;;;;14.82;12.82;;;14.70;99.90;;;;;;5013138;28;20030;-61
2022/10/20 03:27:13;;;;;;;16.20;13.60;;;14.70;99.90;;;;;;5014069;28;20037;-59
2022/10/20 03:29:38;;;;;;;17.08;12.70;;;14.70;99.90;;;;;;5013845;28;20017;-59
2022/10/20 03:32:04;;;;;;;13.45;12.07;;;14.70;99.90;;;;;;5013095;28;20137;-62
2022/10/20 03:34:29;;;;;;;18.17;12.88;;;14.60;99.90;;;;;;5027806;28;20032;-61
2022/10/20 03:36:55;;;;;;;17.13;13.15;;;14.70;99.90;;;;;;5033070;28;20056;-65
2022/10/20 03:39:21;;;;;;;15.55;12.82;;;14.70;99.90;;;;;;5031387;28;20079;-62
2022/10/20 03:41:46;;;;;;;17.50;12.82;;;14.70;99.90;;;;;;5030583;28;20561;-60
2022/10/20 03:44:12;;;;;;;15.60;13.77;;;14.60;99.90;;;;;;5033197;28;20050;-63
2022/10/20 03:46:37;;;;;;;14.93;12.45;;;14.60;99.90;;;;;;5032992;28;20025;-61
2022/10/20 03:49:03;;;;;;;14.65;13.15;;;14.60;99.90;;;;;;5033043;28;20434;-61
2022/10/20 03:51:28;;;;;;;13.93;12.50;;;14.60;99.90;;;;;;5033570;28;20022;-61
2022/10/20 03:53:54;;;;;;;13.65;12.25;;;14.60;99.90;;;;;;5032995;28;20057;-64
2022/10/20 03:56:21;;;;;;;16.55;13.40;;;14.60;99.90;;;;;;5033247;28;20032;-64
2022/10/20 03:58:47;;;;;;;18.38;13.52;;;14.60;99.90;;;;;;5033126;28;20021;-64
2022/10/20 04:01:18;;;;;;;16.33;13.70;;;14.60;99.90;;;;;;5033006;28;20040;-65
2022/10/20 04:03:44;;;;;;;15.82;12.85;;;14.60;99.90;;;;;;5033074;28;20076;-62
2022/10/20 04:06:11;;;;;;;16.55;12.75;;;14.70;99.90;;;;;;5033140;28;20021;-60
2022/10/20 04:08:37;;;;;;;15.52;13.43;;;14.60;99.90;;;;;;5032890;28;20463;-65
2022/10/20 04:11:03;;;;;;;14.65;13.13;;;14.60;99.90;;;;;;5032873;28;20029;-65
2022/10/20 04:13:28;;;;;;;15.45;13.23;;;14.60;99.90;;;;;;5032991;28;20025;-64
2022/10/20 04:15:54;;;;;;;15.25;12.50;;;14.60;99.90;;;;;;5032929;28;20036;-65
2022/10/20 04:18:19;;;;;;;16.88;12.68;;;14.60;99.90;;;;;;5033011;28;20026;-65
2022/10/20 04:20:47;;;;;;;15.82;13.95;;;14.60;99.90;;;;;;5032728;28;20022;-64
2022/10/20 04:23:13;;;;;;;15.00;13.43;;;14.60;99.90;;;;;;5032840;28;20504;-64
2022/10/20 04:25:44;;;;;;;16.35;13.18;;;14.60;99.90;;;;;;5031375;28;20540;-63
2022/10/20 04:28:10;;;;;;;16.95;13.65;;;14.60;99.90;;;;;;5032797;28;20037;-64
2022/10/20 04:30:37;;;;;;;14.43;12.85;;;14.60;99.90;;;;;;5032503;28;20018;-65
2022/10/20 04:33:03;;;;;;;19.17;13.48;;;14.60;99.90;;;;;;5032714;28;20368;-65
2022/10/20 04:35:28;;;;;;;17.00;13.10;;;14.60;99.90;;;;;;5031394;28;20033;-64
2022/10/20 04:37:54;;;;;;;17.38;13.90;;;14.60;99.90;;;;;;5032835;28;20034;-65
2022/10/20 04:40:19;;;;;;;17.05;12.68;;;14.50;99.90;;;;;;5032666;28;20087;-65
2022/10/20 04:42:45;;;;;;;15.68;13.25;;;14.60;99.90;;;;;;5032584;28;20060;-64
2022/10/20 04:45:10;;;;;;;17.05;13.00;;;14.60;99.90;;;;;;5032560;28;20045;-64
2022/10/20 04:47:36;;;;;;;16.05;13.93;;;14.60;99.90;;;;;;5030602;28;20103;-64
2022/10/20 04:50:03;;;;;;;14.80;12.57;;;14.50;99.90;;;;;;5032129;28;20521;-64
2022/10/20 04:52:28;;;;;;;15.85;13.48;;;14.50;99.90;;;;;;5029060;28;20036;-64
2022/10/20 04:54:54;;;;;;;15.25;13.45;;;14.60;99.90;;;;;;5032488;28;20022;-65
2022/10/20 04:57:19;;;;;;;16.60;13.05;;;14.50;99.90;;;;;;5031945;28;20517;-65
2022/10/20 04:59:45;;;;;;;14.18;12.60;;;14.50;99.90;;;;;;5035246;28;20049;-64
2022/10/20 05:02:11;;;;;;;16.75;12.48;;;14.50;99.90;;;;;;5032903;28;20033;-64
2022/10/20 05:04:36;;;;;;;15.20;12.63;;;14.50;99.90;;;;;;5036436;28;20482;-64
2022/10/20 05:07:02;;;;;;;16.25;12.10;;;14.50;99.90;;;;;;5034688;28;20021;-64
2022/10/20 05:09:27;;;;;;;16.15;12.27;;;14.50;99.90;;;;;;5035651;28;20025;-63
2022/10/20 05:11:53;;;;;;;16.95;13.00;;;14.50;99.90;;;;;;5035921;28;20076;-64
2022/10/20 05:14:19;;;;;;;18.58;13.85;;;14.50;99.90;;;;;;5035764;28;20086;-64
2022/10/20 05:16:44;;;;;;;18.60;14.18;;;14.50;99.90;;;;;;5034931;28;20056;-61
2022/10/20 05:19:10;;;;;;;17.60;13.18;;;14.50;99.90;;;;;;5028583;28;20096;-64
2022/10/20 05:21:36;;;;;;;16.80;13.05;;;14.40;99.90;;;;;;5022400;28;20033;-61
2022/10/20 05:24:04;;;;;;;16.50;12.93;;;14.50;99.90;;;;;;5021107;28;20514;-64
2022/10/20 05:26:34;;;;;;;16.90;12.80;;;14.50;99.90;;;;;;5020224;28;20049;-59
2022/10/20 05:29:02;;;;;;;18.85;12.85;;;14.40;99.90;;;;;;5023961;28;20036;-59
2022/10/20 05:31:28;;;;;;;15.65;13.00;;;14.40;99.90;;;;;;5031458;28;20028;-64
2022/10/20 05:33:55;;;;;;;16.45;11.00;;;14.50;99.90;;;;;;5032985;28;20022;-64
2022/10/20 05:36:24;;;;;;;12.15;9.38;;;14.50;99.90;;;;;;5033801;28;20021;-63
2022/10/20 05:38:52;;;;;;;9.73;8.73;;;14.60;99.90;;;;;;5032514;28;20028;-64
2022/10/20 05:41:23;;;;;;;11.40;8.90;;;14.60;99.90;;;;;;5033676;28;20107;-63
2022/10/20 05:43:50;;;;;;;12.40;9.93;;;14.60;99.90;;;;;;5019549;28;20034;-65
2022/10/20 05:46:17;;;;;;;11.45;9.15;;;14.60;99.90;;;;;;5033860;28;20036;-66
2022/10/20 05:48:42;;;;;;;13.60;9.75;;;14.70;99.90;;;;;;5032626;28;20483;-65
2022/10/20 05:51:11;;;;;;;13.05;10.23;;;14.70;99.90;;;;;;5026798;28;20025;-65
2022/10/20 05:53:38;;;;;;;18.42;9.10;;;14.70;99.90;;;;;;5028178;28;20025;-65
2022/10/20 05:56:05;;;;;;;12.00;7.68;;;14.70;99.90;;;;;;5035212;28;20041;-64
2022/10/20 05:58:30;;;;;;;13.65;10.15;;;14.60;99.90;;;;;;5029380;28;20091;-65
2022/10/20 06:01:22;;;;;;;11.75;9.82;;;14.60;99.90;;;;;;5033354;28;20021;-61
2022/10/20 06:03:51;;;;;;;21.52;15.07;;;14.60;99.90;;;;;;5025970;28;20073;-64
2022/10/20 06:06:18;;;;;;;16.00;12.35;;;14.60;99.90;;;;;;5016815;28;20063;-64
2022/10/20 06:08:43;;;;;;;17.65;12.60;;;14.60;99.90;;;;;;5030880;28;20030;-66
2022/10/20 06:11:11;;;;;;;17.40;12.20;;;14.60;99.90;;;;;;5032071;28;20029;-67
2022/10/20 06:13:36;;;;;;;16.55;11.98;;;14.60;99.90;;;;;;5030063;28;20395;-70
2022/10/20 06:16:08;;;;;;;13.07;11.68;;;14.50;99.90;;;;;;5030321;28;20033;-68
2022/10/20 06:18:37;;;;;;;16.58;11.77;;;14.60;99.90;;;;;;5039927;28;20033;-66
2022/10/20 06:21:05;;;;;;;14.55;12.00;;;14.50;99.90;;;;;;5054318;28;20033;-67
2022/10/20 06:23:31;;;;;;;13.00;11.70;;;14.60;99.90;;;;;;5035366;28;20025;-70
2022/10/20 06:26:02;;;;;;;15.13;11.80;;;14.60;99.90;;;;;;5042372;28;20102;-70
2022/10/20 06:28:30;;;;;;;18.25;11.90;;;14.50;99.90;;;;;;5054546;28;20425;-71
2022/10/20 06:30:55;;;;;;;15.55;12.07;;;14.50;99.90;;;;;;5054461;28;20098;-66
2022/10/20 06:33:21;;;;;;;12.95;10.57;;;14.50;99.90;;;;;;5045283;28;20033;-67
2022/10/20 06:35:47;;;;;;;18.75;11.57;;;14.50;99.90;;;;;;5028856;28;20028;-68
2022/10/20 06:38:12;;;;;;;15.73;11.77;;;14.50;99.90;;;;;;5039087;28;20052;-66
2022/10/20 06:40:38;;;;;;;16.25;11.25;;;14.50;99.90;;;;;;5034831;28;20022;-66
2022/10/20 06:43:03;;;;;;;14.75;10.95;;;14.50;99.90;;;;;;5035712;28;20040;-66
2022/10/20 06:45:29;;;;;;;16.13;11.93;;;14.50;99.90;;;;;;5033197;28;20531;-67
2022/10/20 06:47:55;;;;;;;16.90;11.20;;;14.50;99.90;;;;;;5034152;28;20071;-67
2022/10/20 06:50:20;;;;;;;13.00;11.00;;;14.50;99.90;;;;;;5037289;28;20497;-67
2022/10/20 06:52:47;;;;;;;14.77;12.13;;;14.50;99.90;;;;;;5052481;28;20087;-67
2022/10/20 06:55:12;;;;;;;14.07;11.27;;;14.50;99.90;;;;;;5038039;28;20060;-67
2022/10/20 06:57:38;;;;;;;15.40;11.80;;;14.50;99.90;;;;;;5030986;28;20076;-67
2022/10/20 07:00:04;;;;;;;15.05;10.88;;;14.50;99.90;;;;;;5033913;28;20062;-67
2022/10/20 07:02:30;;;;;;;14.07;11.45;;;14.50;99.90;;;;;;5033456;28;20087;-67
2022/10/20 07:04:55;;;;;;;15.23;11.27;;;14.50;99.90;;;;;;5034532;28;20029;-67
2022/10/20 07:07:21;;;;;;;15.68;11.82;;;14.50;99.90;;;;;;5051840;28;20486;-67
2022/10/20 07:09:46;;;;;;;14.60;11.65;;;14.50;99.90;;;;;;5053368;28;20032;-67
2022/10/20 07:12:12;;;;;;;15.55;11.63;;;14.50;99.90;;;;;;5053515;28;20021;-67
2022/10/20 07:14:37;;;;;;;15.43;12.02;;;14.50;99.90;;;;;;5044431;28;20033;-67
2022/10/20 07:17:03;;;;;;;13.35;11.20;;;14.50;99.90;;;;;;5038806;28;20033;-67
2022/10/20 07:19:29;;;;;;;13.50;11.10;;;14.50;99.90;;;;;;5053166;28;20029;-67
2022/10/20 07:21:55;;;;;;;14.25;11.75;;;14.60;99.90;;;;;;5031948;28;20479;-67
2022/10/20 07:24:20;;;;;;;12.07;9.93;;;14.60;99.90;;;;;;5032101;28;20041;-70
2022/10/20 07:26:46;;;;;;;23.00;9.90;;;14.60;99.90;;;;;;5037810;28;20025;-69
2022/10/20 07:29:13;;;;;;;18.25;11.13;;;14.60;99.90;;;;;;5035686;28;20184;-69
2022/10/20 07:31:43;;;;;;;14.63;11.52;;;14.60;99.90;;;;;;5033473;28;20053;-69
2022/10/20 07:34:11;;;;;;;14.40;11.27;;;14.60;99.90;;;;;;5033283;28;20108;-69
2022/10/20 07:36:40;;;;;;;14.43;11.70;;;14.60;99.90;;;;;;5033515;28;20017;-68
2022/10/20 07:39:06;;;;;;;12.15;9.75;;;14.60;99.90;;;;;;5033005;28;20021;-69
2022/10/20 07:41:32;;;;;;;15.38;11.20;;;14.60;99.90;;;;;;5032148;28;20152;-68
2022/10/20 07:43:58;;;;;;;14.68;11.07;;;14.60;99.90;;;;;;5035671;28;20037;-68
2022/10/20 07:46:24;;;;;;;14.73;11.02;;;14.60;99.90;;;;;;5035860;28;20025;-68
2022/10/20 07:48:50;;;;;;;16.10;10.75;;;14.70;99.90;;;;;;5039374;28;20047;-68
2022/10/20 07:51:23;;;;;;;12.02;10.00;;;14.70;99.90;;;;;;5053092;28;20100;-68
2022/10/20 07:53:50;;;;;;;14.65;10.25;;;14.70;99.90;;;;;;5052915;28;20078;-68
2022/10/20 07:56:16;;;;;;;11.57;9.05;;;14.70;99.90;;;;;;5047791;28;20486;-68
2022/10/20 07:58:42;;;;;;;12.80;9.27;;;14.70;99.90;;;;;;5031119;28;20025;-68
2022/10/20 08:01:08;;;;;;;16.20;10.65;;;14.80;99.90;;;;;;5033009;28;20104;-68
2022/10/20 08:03:34;;;;;;;14.55;11.00;;;14.70;99.90;;;;;;5032779;28;20116;-68
2022/10/20 08:05:59;;;;;;;11.52;10.20;;;14.80;99.90;;;;;;5015456;28;20495;-68
2022/10/20 08:08:25;;;;;;;12.50;11.02;;;14.70;99.90;;;;;;5024585;28;20094;-68
2022/10/20 08:10:51;;;;;;;13.43;10.18;;;14.70;99.90;;;;;;5040523;28;20037;-68
2022/10/20 08:13:17;;;;;;;13.95;10.85;;;14.80;99.90;;;;;;5038310;28;20029;-68
2022/10/20 08:15:42;;;;;;;14.88;10.88;;;14.70;99.90;;;;;;5027639;28;20060;-68
2022/10/20 08:18:08;;;;;;;13.93;11.13;;;14.80;99.90;;;;;;5039554;28;20052;-67
2022/10/20 08:20:33;;;;;;;12.43;10.30;;;14.80;99.90;;;;;;5012669;28;20018;-67
2022/10/20 08:22:59;;;;;;;19.77;10.07;;;14.80;99.90;;;;;;5011127;28;20028;-68
2022/10/20 08:25:25;;;;;;;13.05;9.82;;;14.80;99.90;;;;;;5012982;28;20025;-67
2022/10/20 08:27:51;;;;;;;18.83;10.75;;;14.80;99.90;;;;;;5013130;28;20392;-67
2022/10/20 08:30:16;;;;;;;15.27;10.18;;;14.80;99.90;;;;;;5012802;28;20025;-67
2022/10/20 08:32:42;;;;;;;13.20;9.25;;;14.90;99.90;;;;;;5013078;28;20030;-67
2022/10/20 08:35:08;;;;;;;17.65;9.30;;;14.90;99.90;;;;;;5016481;28;20034;-67
2022/10/20 08:37:35;;;;;;;15.88;10.48;;;14.90;99.90;;;;;;5016740;28;20030;-67
2022/10/20 08:40:02;;;;;;;13.32;9.93;;;14.90;99.90;;;;;;5016912;28;20022;-67
2022/10/20 08:42:28;;;;;;;17.83;10.88;;;14.90;99.90;;;;;;5016792;28;20022;-67
2022/10/20 08:44:58;;;;;;;17.30;9.93;;;14.90;99.90;;;;;;5016508;28;20396;-67
2022/10/20 08:47:35;;;;;;;18.08;10.38;;;14.90;99.90;;;;;;5016888;28;20113;-67
2022/10/20 08:50:03;;;;;;;15.10;10.27;;;14.90;99.90;;;;;;5016767;28;20033;-67
2022/10/20 08:52:30;;;;;;;17.17;10.40;;;15.00;99.90;;;;;;5016339;28;20481;-69
2022/10/20 08:54:56;;;;;;;13.40;10.65;;;14.90;99.90;;;;;;5016639;28;20171;-68
2022/10/20 08:57:30;;;;;;;16.38;11.48;;;14.90;99.90;;;;;;5016456;28;20026;-69
2022/10/20 09:00:19;;;;;;;14.60;11.25;;;15.00;99.90;;;;;;5016522;28;20036;-68
2022/10/20 09:02:47;;;;;;;13.88;10.75;;;15.00;99.90;;;;;;5016242;28;20217;-68
2022/10/20 09:05:16;;;;;;;18.40;11.25;;;15.00;99.90;;;;;;5016279;28;20034;-69
2022/10/20 09:07:41;;;;;;;14.48;10.90;;;15.10;99.90;;;;;;5016363;28;20053;-68
2022/10/20 09:10:29;;;;;;;17.30;10.57;;;15.00;99.90;;;;;;5016425;28;20135;-69
2022/10/20 09:12:55;;;;;;;16.55;10.63;;;15.00;99.90;;;;;;5016329;28;20022;-67
2022/10/20 09:15:21;;;;;;;14.70;11.15;;;15.00;99.90;;;;;;5016101;28;20045;-68
2022/10/20 09:18:03;;;;;;;13.35;11.32;;;15.00;99.90;;;;;;5016192;28;20502;-68
2022/10/20 09:20:47;;;;;;;14.73;11.63;;;15.00;99.90;;;;;;5015918;28;20022;-69
2022/10/20 09:23:18;;;;;;;18.20;12.13;;;15.10;99.90;;;;;;5017490;28;20407;-70
2022/10/20 09:25:46;;;;;;;12.98;11.13;;;15.10;99.90;;;;;;5035836;28;20037;-69
2022/10/20 09:28:23;;;;;;;15.55;12.30;;;15.10;99.90;;;;;;5035966;28;20064;-69
2022/10/20 09:30:49;;;;;;;19.15;10.85;;;15.10;99.90;;;;;;5035779;28;20034;-67
2022/10/20 09:33:21;;;;;;;14.07;10.95;;;15.10;99.90;;;;;;5035214;28;20074;-69
2022/10/20 09:35:47;;;;;;;16.88;12.20;;;15.10;99.90;;;;;;5034827;28;20033;-69
2022/10/20 09:38:25;;;;;;;17.67;12.30;;;15.10;99.90;;;;;;5035427;28;20041;-67
2022/10/20 09:41:12;;;;;;;16.73;10.13;;;15.10;99.90;;;;;;5035766;28;20034;-66
2022/10/20 09:43:50;;;;;;;20.90;11.45;;;15.20;99.90;;;;;;5035045;28;20033;-67
2022/10/20 09:46:20;;;;;;;19.98;11.70;;;15.20;99.90;;;;;;5035098;28;20108;-67
2022/10/20 09:48:48;;;;;;;17.92;11.18;;;15.20;99.90;;;;;;5035201;28;20372;-67
2022/10/20 09:51:28;;;;;;;23.45;11.25;;;15.20;99.90;;;;;;5033169;28;20497;-68
2022/10/20 09:54:03;;;;;;;18.77;10.75;;;15.20;99.90;;;;;;5031655;28;20029;-67
2022/10/20 09:56:33;;;;;;;16.48;9.80;;;15.20;99.90;;;;;;5055213;28;20028;-65
2022/10/20 09:59:01;;;;;;;18.95;9.70;;;15.30;99.90;;;;;;5047390;28;20549;-64
2022/10/20 10:01:26;;;;;;;18.05;8.00;;;15.30;99.90;;;;;;5034695;28;20113;-64
2022/10/20 10:04:00;;;;;;;19.38;8.30;;;15.30;99.90;;;;;;5034498;28;20496;-63
2022/10/20 10:06:42;;;;;;;16.42;7.38;;;15.40;99.90;;;;;;5041547;28;20140;-66
2022/10/20 10:09:36;;;;;;;18.35;9.50;;;15.40;99.90;;;;;;5035901;28;20478;-66
2022/10/20 10:12:16;;;;;;;19.98;8.82;;;15.50;99.90;;;;;;5038402;28;20029;-66
2022/10/20 10:14:57;;;;;;;21.08;6.70;;;15.50;99.90;;;;;;5040714;28;20475;-65
2022/10/20 10:17:37;;;;;;;17.75;6.47;;;15.50;99.90;;;;;;5046942;28;20399;-65
2022/10/20 10:20:25;;;;;;;13.50;7.15;;;15.50;99.90;;;;;;5037901;28;20030;-65
2022/10/20 10:22:50;;;;;;;20.45;9.65;;;15.50;99.90;;;;;;5023430;28;20033;-65
2022/10/20 10:25:25;;;;;;;16.17;7.45;;;15.60;99.90;;;;;;5043228;28;20032;-69
2022/10/20 10:28:05;;;;;;;11.10;7.38;;;15.60;99.90;;;;;;5038934;28;20025;-65
2022/10/20 10:30:33;;;;;;;15.30;7.50;;;15.60;99.90;;;;;;5034720;28;20029;-65
2022/10/20 10:32:59;;;;;;;15.70;8.73;;;15.60;99.90;;;;;;5036535;28;20021;-65
2022/10/20 10:35:33;;;;;;;18.45;9.82;;;15.60;99.90;;;;;;5038910;28;20481;-64
2022/10/20 10:37:59;;;;;;;14.90;8.73;;;15.70;99.90;;;;;;5050468;28;20144;-66
2022/10/20 10:40:51;;;;;;;17.10;7.05;;;15.70;99.90;;;;;;5034774;28;20032;-66
2022/10/20 10:43:57;;;;;;;14.07;6.97;;;15.70;99.90;;;;;;5044526;28;20048;-65
2022/10/20 10:46:35;;;;;;;13.98;8.00;;;15.70;99.90;;;;;;5005193;28;20418;-63
2022/10/20 10:49:43;;;;;;;14.20;6.60;;;15.70;99.90;;;;;;5031061;28;20423;-65
2022/10/20 10:52:30;;;;;;;16.20;8.18;;;15.80;99.90;;;;;;4995900;28;20029;-63
2022/10/20 10:55:27;;;;;;;19.02;8.48;;;15.70;99.90;;;;;;5030544;28;20059;-63
2022/10/20 10:58:27;;;;;;;11.73;8.98;;;15.80;99.90;;;;;;5017696;28;20572;-62
2022/10/20 11:01:14;;;;;;;15.77;8.63;;;15.80;99.90;;;;;;5045701;28;20024;-63
2022/10/20 11:04:10;;;;;;;15.20;9.50;;;15.80;99.90;;;;;;5038800;28;20045;-62
2022/10/20 11:06:47;;;;;;;13.50;9.32;;;15.90;99.90;;;;;;5032983;28;20033;-63
2022/10/20 11:09:18;;;;;;;17.67;10.02;;;15.90;99.90;;;;;;5037014;28;20036;-63
2022/10/20 11:11:55;;;;;;;14.80;9.30;;;15.90;99.90;;;;;;5030836;28;20029;-63
2022/10/20 11:14:42;;;;;;;11.30;7.05;;;15.90;99.90;;;;;;5034801;28;20040;-64
2022/10/20 11:17:17;;;;;;;15.68;9.25;;;15.90;99.90;;;;;;5029996;28;20036;-61
2022/10/20 11:19:59;;;;;;;16.95;8.07;;;15.90;99.90;;;;;;5039320;28;20041;-64
2022/10/20 11:22:43;;;;;;;13.68;6.28;;;15.90;99.90;;;;;;5049784;28;20119;-65
2022/10/20 11:25:36;;;;;;;16.70;7.32;;;16.00;99.90;;;;;;5036978;28;20091;-64
2022/10/20 11:28:35;;;;;;;15.82;6.47;;;16.00;99.90;;;;;;5032415;28;20079;-66
2022/10/20 11:31:03;;;;;;;12.32;7.38;;;16.10;99.90;;;;;;5028538;28;20059;-65
2022/10/20 11:33:44;;;;;;;11.57;7.18;;;16.10;99.90;;;;;;5048007;28;20028;-63
2022/10/20 11:36:17;;;;;;;13.70;7.88;;;16.10;99.90;;;;;;5033347;28;20022;-65
2022/10/20 11:38:52;;;;;;;15.20;7.03;;;16.10;99.90;;;;;;5033122;28;20026;-64
2022/10/20 11:41:47;;;;;;;11.93;6.70;;;16.10;99.90;;;;;;5039010;28;20051;-65
2022/10/20 11:44:29;;;;;;;18.23;7.88;;;16.20;99.90;;;;;;5039608;28;20052;-65
2022/10/20 11:47:41;;;;;;;14.27;7.80;;;16.20;99.90;;;;;;5048199;28;20029;-64
2022/10/20 11:50:10;;;;;;;13.10;7.63;;;16.20;99.90;;;;;;5015355;28;20045;-65
2022/10/20 11:52:47;;;;;;;9.57;6.75;;;16.20;99.90;;;;;;5048336;28;20471;-66
2022/10/20 11:55:39;;;;;;;8.45;6.57;;;16.20;99.90;;;;;;5032875;28;20383;-65
2022/10/20 11:58:29;;;;;;;13.40;6.43;;;16.20;99.90;;;;;;5036461;28;20025;-63
2022/10/20 12:01:21;;;;;;;9.55;6.60;;;16.30;99.90;;;;;;5049395;28;20033;-65
2022/10/20 12:04:07;;;;;;;;;;;16.30;99.90;;;;;;5024200;28;20035;-62
2022/10/20 12:07:03;;;;;;;9.55;6.13;;;16.30;99.90;;;;;;5020040;28;20016;-61
2022/10/20 12:09:38;;;;;;;11.55;6.28;;;16.30;99.90;;;;;;5032456;28;20029;-65
2022/10/20 12:12:24;;;;;;;7.40;5.75;;;16.30;99.90;;;;;;5051095;28;20028;-65
2022/10/20 12:14:58;;;;;;;9.45;6.30;;;16.40;99.90;;;;;;5050116;28;20021;-66
2022/10/20 12:17:27;;;;;;;8.63;6.28;;;16.40;99.90;;;;;;5045453;28;20039;-65
2022/10/20 12:20:19;;;;;;;10.65;5.50;;;16.40;99.90;;;;;;5035616;28;20515;-66
2022/10/20 12:22:47;;;;;;;11.45;6.05;;;16.50;99.90;;;;;;5030937;28;20063;-65
2022/10/20 12:25:33;;;;;;;8.27;5.22;;;16.50;99.90;;;;;;5046642;28;20040;-66
2022/10/20 12:28:21;;;;;;;6.50;5.32;;;16.60;99.90;;;;;;5052218;28;20025;-65
2022/10/20 12:30:58;;;;;;;8.30;4.88;;;16.60;99.90;;;;;;5037712;28;20095;-65
2022/10/20 12:33:49;;;;;;;9.63;5.03;;;16.60;99.90;;;;;;5041358;28;20059;-66
2022/10/20 12:36:17;;;;;;;11.25;4.90;;;16.70;99.90;;;;;;5052469;28;20039;-66
2022/10/20 12:38:47;;;;;;;9.73;4.78;;;16.70;99.90;;;;;;5050391;28;20031;-66
2022/10/20 12:41:28;;;;;;;12.13;4.35;;;16.70;99.90;;;;;;5052424;28;20108;-66
2022/10/20 12:43:59;;;;;;;10.00;4.50;;;16.80;99.90;;;;;;5052276;28;20036;-65
2022/10/20 12:46:30;;;;;;;8.38;4.35;;;16.80;99.90;;;;;;5052455;28;20059;-65
2022/10/20 12:49:03;;;;;;;10.48;4.38;;;16.80;99.90;;;;;;5052500;28;20037;-65